createdAt,value
2019-03-09T00:00:35.053Z,1.60
2019-03-09T00:03:03.454Z,1.70
2019-03-09T00:05:31.851Z,2.07
2019-03-09T00:08:00.271Z,1.90
2019-03-09T00:10:28.649Z,1.30
2019-03-09T00:12:57.053Z,1.33
2019-03-09T00:15:25.634Z,1.27
2019-03-09T00:17:54.012Z,1.20
2019-03-09T00:20:22.427Z,1.10
2019-03-09T00:23:08.632Z,0.83
2019-03-09T00:25:38.832Z,1.00
2019-03-09T00:28:08.852Z,1.07
2019-03-09T00:30:44.685Z,1.30
2019-03-09T00:33:13.054Z,1.40
2019-03-09T00:35:41.469Z,1.07
2019-03-09T00:38:09.882Z,0.70
2019-03-09T00:40:38.261Z,0.90
2019-03-09T00:43:06.656Z,1.13
2019-03-09T00:45:35.064Z,1.00
2019-03-09T00:48:03.540Z,0.70
2019-03-09T00:50:32.219Z,0.90
2019-03-09T00:53:00.609Z,1.10
2019-03-09T00:55:29.026Z,1.00
2019-03-09T00:58:00.193Z,0.87
2019-03-09T01:00:28.618Z,0.93
2019-03-09T01:02:57.025Z,0.80
2019-03-09T01:05:25.472Z,0.77
2019-03-09T01:07:53.997Z,0.80
2019-03-09T01:10:22.462Z,0.80
2019-03-09T01:12:50.870Z,0.80
2019-03-09T01:15:19.394Z,0.57
2019-03-09T01:17:47.879Z,0.90
2019-03-09T01:20:16.801Z,0.87
2019-03-09T01:22:45.196Z,1.07
2019-03-09T01:25:14.033Z,0.70
2019-03-09T01:27:42.487Z,1.13
2019-03-09T01:30:14.126Z,1.00
2019-03-09T01:32:42.617Z,0.77
2019-03-09T01:35:11.112Z,0.80
2019-03-09T01:37:39.878Z,1.20
2019-03-09T01:40:11.345Z,0.80
2019-03-09T01:42:39.830Z,1.00
2019-03-09T01:45:13.718Z,0.97
2019-03-09T01:47:42.129Z,0.80
2019-03-09T01:50:10.761Z,0.90
2019-03-09T01:52:39.268Z,0.60
2019-03-09T01:55:10.208Z,1.00
2019-03-09T01:57:38.685Z,0.80
2019-03-09T02:00:09.902Z,0.80
2019-03-09T02:02:38.291Z,0.90
2019-03-09T02:05:08.520Z,0.73
2019-03-09T02:07:37.017Z,0.70
2019-03-09T02:10:11.007Z,0.70
2019-03-09T02:12:39.485Z,0.87
2019-03-09T02:15:12.919Z,0.93
2019-03-09T02:17:41.326Z,0.83
2019-03-09T02:20:17.352Z,0.80
2019-03-09T02:22:45.821Z,1.00
2019-03-09T02:25:14.603Z,0.80
2019-03-09T02:27:43.002Z,0.70
2019-03-09T02:30:20.599Z,0.90
2019-03-09T02:32:48.991Z,0.73
2019-03-09T02:35:18.367Z,0.50
2019-03-09T02:37:46.826Z,1.37
2019-03-09T02:40:23.353Z,0.83
2019-03-09T02:42:51.779Z,0.53
2019-03-09T02:45:23.104Z,0.57
2019-03-09T02:47:51.467Z,0.70
2019-03-09T02:50:20.035Z,0.60
2019-03-09T02:52:48.405Z,0.60
2019-03-09T02:55:16.958Z,0.80
2019-03-09T02:57:45.345Z,0.97
2019-03-09T03:00:21.223Z,0.77
2019-03-09T03:02:51.309Z,1.00
2019-03-09T03:05:19.781Z,0.63
2019-03-09T03:07:48.250Z,0.60
2019-03-09T03:10:16.730Z,0.63
2019-03-09T03:12:45.106Z,0.80
2019-03-09T03:15:28.273Z,0.70
2019-03-09T03:17:56.708Z,0.43
2019-03-09T03:20:25.272Z,0.70
2019-03-09T03:22:53.659Z,0.77
2019-03-09T03:25:22.050Z,0.70
2019-03-09T03:27:50.517Z,1.03
2019-03-09T03:30:18.899Z,0.40
2019-03-09T03:32:47.466Z,0.40
2019-03-09T03:35:15.953Z,0.60
2019-03-09T03:37:44.361Z,0.63
2019-03-09T03:40:13.409Z,0.70
2019-03-09T03:42:41.943Z,0.50
2019-03-09T03:45:12.542Z,0.60
2019-03-09T03:47:41.009Z,0.70
2019-03-09T03:50:09.588Z,0.47
2019-03-09T03:52:37.963Z,0.40
2019-03-09T03:55:08.595Z,0.30
2019-03-09T03:57:37.139Z,0.40
2019-03-09T04:00:08.591Z,0.50
2019-03-09T04:02:37.224Z,0.40
2019-03-09T04:05:06.355Z,0.30
2019-03-09T04:07:35.484Z,0.63
2019-03-09T04:10:05.413Z,0.40
2019-03-09T04:12:34.014Z,0.50
2019-03-09T04:15:02.455Z,0.50
2019-03-09T04:17:30.869Z,0.30
2019-03-09T04:19:59.247Z,0.40
2019-03-09T04:22:27.646Z,0.50
2019-03-09T04:24:56.146Z,0.60
2019-03-09T04:27:24.518Z,0.43
2019-03-09T04:29:52.980Z,0.40
2019-03-09T04:32:21.359Z,0.30
2019-03-09T04:34:49.764Z,0.30
2019-03-09T04:37:18.160Z,0.40
2019-03-09T04:39:46.565Z,0.33
2019-03-09T04:42:15.020Z,0.40
2019-03-09T04:44:43.415Z,0.30
2019-03-09T04:47:11.801Z,0.33
2019-03-09T04:49:40.202Z,0.30
2019-03-09T04:52:08.586Z,0.30
2019-03-09T04:54:36.985Z,0.40
2019-03-09T04:57:05.356Z,0.47
2019-03-09T04:59:33.750Z,0.30
2019-03-09T05:02:02.134Z,0.40
2019-03-09T05:04:38.899Z,0.27
2019-03-09T05:07:07.294Z,0.30
2019-03-09T05:09:44.721Z,0.33
2019-03-09T05:12:13.108Z,0.27
2019-03-09T05:14:41.595Z,0.30
2019-03-09T05:17:09.987Z,0.40
2019-03-09T05:19:38.402Z,0.30
2019-03-09T05:22:06.793Z,0.20
2019-03-09T05:24:35.183Z,0.40
2019-03-09T05:27:03.583Z,0.30
2019-03-09T05:29:32.012Z,0.23
2019-03-09T05:32:00.371Z,0.20
2019-03-09T05:34:28.783Z,0.20
2019-03-09T05:36:57.180Z,0.40
2019-03-09T05:39:25.570Z,0.30
2019-03-09T05:41:53.976Z,0.23
2019-03-09T05:44:22.362Z,0.30
2019-03-09T05:46:50.825Z,0.30
2019-03-09T05:49:19.227Z,0.20
2019-03-09T05:52:19.208Z,0.20
2019-03-09T05:54:47.587Z,0.30
2019-03-09T05:57:15.976Z,0.10
2019-03-09T05:59:44.358Z,0.30
2019-03-09T06:03:34.681Z,0.30
2019-03-09T06:06:03.188Z,0.20
2019-03-09T06:08:31.651Z,0.30
2019-03-09T06:11:00.068Z,0.30
2019-03-09T06:13:28.482Z,0.20
2019-03-09T06:15:56.870Z,0.30
2019-03-09T06:18:25.254Z,0.20
2019-03-09T06:20:53.638Z,0.30
2019-03-09T06:23:22.111Z,0.10
2019-03-09T06:25:50.495Z,0.20
2019-03-09T06:28:18.906Z,0.20
2019-03-09T06:30:47.286Z,0.20
2019-03-09T06:33:21.126Z,0.20
2019-03-09T06:36:10.062Z,0.13
2019-03-09T06:38:56.655Z,0.30
2019-03-09T06:41:51.401Z,0.20
2019-03-09T06:44:19.811Z,0.10
2019-03-09T06:46:50.013Z,0.10
2019-03-09T06:49:18.489Z,0.30
2019-03-09T06:51:46.891Z,0.20
2019-03-09T06:54:15.312Z,0.20
2019-03-09T06:56:43.704Z,0.87
2019-03-09T06:59:12.120Z,0.30
2019-03-09T07:01:40.514Z,0.20
2019-03-09T07:04:08.916Z,0.30
2019-03-09T07:06:37.314Z,0.40
2019-03-09T07:09:06.566Z,0.30
2019-03-09T07:11:34.963Z,0.30
2019-03-09T07:14:39.242Z,0.23
2019-03-09T07:17:07.636Z,0.20
2019-03-09T07:19:36.131Z,0.50
2019-03-09T07:22:04.531Z,0.30
2019-03-09T07:24:32.996Z,0.20
2019-03-09T07:27:01.387Z,0.20
2019-03-09T07:29:29.775Z,0.20
2019-03-09T07:31:58.242Z,0.20
2019-03-09T07:34:27.482Z,0.40
2019-03-09T07:36:55.939Z,0.20
2019-03-09T07:39:24.337Z,0.30
2019-03-09T07:41:52.721Z,0.20
2019-03-09T07:44:21.106Z,0.20
2019-03-09T07:46:49.505Z,0.20
2019-03-09T07:49:17.924Z,0.40
2019-03-09T07:51:46.974Z,0.30
2019-03-09T07:54:15.365Z,0.20
2019-03-09T07:56:43.775Z,0.30
2019-03-09T07:59:12.334Z,0.23
2019-03-09T08:01:40.732Z,0.23
2019-03-09T08:04:11.101Z,0.20
2019-03-09T08:06:39.521Z,0.10
2019-03-09T08:09:08.144Z,0.20
2019-03-09T08:11:36.575Z,0.10
2019-03-09T08:14:05.040Z,0.20
2019-03-09T08:16:35.942Z,0.20
2019-03-09T08:19:03.564Z,0.10
2019-03-09T08:21:32.050Z,0.20
2019-03-09T08:24:00.425Z,0.20
2019-03-09T08:26:28.847Z,0.20
2019-03-09T08:28:57.243Z,0.13
2019-03-09T08:31:25.695Z,0.30
2019-03-09T08:33:54.092Z,0.10
2019-03-09T08:36:22.702Z,0.20
2019-03-09T08:38:51.110Z,0.20
2019-03-09T08:41:19.541Z,0.30
2019-03-09T08:43:47.934Z,0.30
2019-03-09T08:46:16.330Z,0.20
2019-03-09T08:48:44.752Z,0.20
2019-03-09T08:51:13.137Z,0.13
2019-03-09T08:53:42.596Z,0.20
2019-03-09T08:56:10.993Z,0.20
2019-03-09T08:58:39.478Z,0.20
2019-03-09T09:01:07.990Z,0.30
2019-03-09T09:03:36.364Z,0.30
2019-03-09T09:06:04.762Z,0.20
2019-03-09T09:08:33.186Z,0.30
2019-03-09T09:11:01.648Z,0.37
2019-03-09T09:13:30.088Z,0.20
2019-03-09T09:15:58.502Z,0.20
2019-03-09T09:18:26.920Z,0.20
2019-03-09T09:20:55.308Z,0.17
2019-03-09T09:23:23.787Z,0.10
2019-03-09T09:25:52.225Z,0.23
2019-03-09T09:28:20.618Z,0.10
2019-03-09T09:30:49.071Z,0.20
2019-03-09T09:33:17.494Z,0.30
2019-03-09T09:35:46.134Z,0.30
2019-03-09T09:38:14.597Z,0.20
2019-03-09T09:40:43.000Z,0.20
2019-03-09T09:43:11.497Z,1.50
2019-03-09T09:45:39.960Z,0.20
2019-03-09T09:48:08.553Z,0.30
2019-03-09T09:50:36.927Z,0.17
2019-03-09T09:53:05.490Z,0.20
2019-03-09T09:55:33.874Z,0.10
2019-03-09T09:58:02.277Z,0.37
2019-03-09T10:00:30.756Z,0.10
2019-03-09T10:02:59.320Z,0.20
2019-03-09T10:05:27.793Z,0.20
2019-03-09T10:07:56.175Z,0.20
2019-03-09T10:10:24.693Z,0.23
2019-03-09T10:12:55.739Z,0.20
2019-03-09T10:15:25.656Z,0.20
2019-03-09T10:17:54.142Z,0.20
2019-03-09T10:20:22.767Z,0.20
2019-03-09T10:22:51.282Z,0.10
2019-03-09T10:25:19.739Z,0.60
2019-03-09T10:27:48.287Z,0.20
2019-03-09T10:30:23.478Z,0.20
2019-03-09T10:32:52.007Z,0.20
2019-03-09T10:35:20.639Z,0.20
2019-03-09T10:37:49.883Z,0.27
2019-03-09T10:40:19.003Z,0.30
2019-03-09T10:42:47.428Z,0.20
2019-03-09T10:45:20.019Z,2.47
2019-03-09T10:47:48.658Z,0.83
2019-03-09T10:50:17.793Z,0.50
2019-03-09T10:52:46.342Z,0.50
2019-03-09T10:55:17.812Z,0.30
2019-03-09T10:57:46.187Z,0.20
2019-03-09T11:00:17.629Z,0.20
2019-03-09T11:02:46.039Z,0.20
2019-03-09T11:05:14.500Z,0.20
2019-03-09T11:07:42.897Z,0.20
2019-03-09T11:10:11.803Z,0.20
2019-03-09T11:12:40.461Z,0.30
2019-03-09T11:15:09.205Z,0.20
2019-03-09T11:17:37.592Z,0.27
2019-03-09T11:20:09.219Z,0.20
2019-03-09T11:22:37.625Z,0.80
2019-03-09T11:25:06.677Z,0.50
2019-03-09T11:27:35.097Z,0.30
2019-03-09T11:30:04.191Z,0.20
2019-03-09T11:32:32.611Z,0.30
2019-03-09T11:35:01.013Z,0.20
2019-03-09T11:37:29.420Z,1.00
2019-03-09T11:39:57.921Z,1.37
2019-03-09T11:42:26.332Z,0.50
2019-03-09T11:44:54.764Z,0.20
2019-03-09T11:47:23.290Z,0.27
2019-03-09T11:49:51.715Z,0.20
2019-03-09T11:52:20.712Z,0.30
2019-03-09T11:54:49.160Z,0.50
2019-03-09T11:57:17.578Z,0.20
2019-03-09T11:59:46.009Z,0.30
2019-03-09T12:02:14.432Z,0.23
2019-03-09T12:04:46.695Z,0.20
2019-03-09T12:07:13.016Z,0.20
2019-03-09T12:09:41.455Z,0.20
2019-03-09T12:12:09.855Z,0.20
2019-03-09T12:14:38.353Z,0.10
2019-03-09T12:17:12.417Z,0.20
2019-03-09T12:19:37.007Z,0.20
2019-03-09T12:22:05.492Z,0.30
2019-03-09T12:24:33.954Z,0.20
2019-03-09T12:27:02.445Z,0.20
2019-03-09T12:29:30.918Z,0.10
2019-03-09T12:31:59.358Z,0.20
2019-03-09T12:34:27.752Z,0.20
2019-03-09T12:36:56.205Z,0.20
2019-03-09T12:39:24.608Z,0.10
2019-03-09T12:41:53.047Z,0.30
2019-03-09T12:44:21.508Z,0.30
2019-03-09T12:46:49.928Z,0.30
2019-03-09T12:49:18.644Z,0.20
2019-03-09T12:51:47.075Z,0.20
2019-03-09T12:54:15.473Z,0.50
2019-03-09T12:56:43.901Z,0.30
2019-03-09T12:59:12.295Z,0.73
2019-03-09T13:01:40.730Z,0.50
2019-03-09T13:04:10.847Z,0.77
2019-03-09T13:06:39.315Z,0.20
2019-03-09T13:09:08.131Z,0.30
2019-03-09T13:11:36.640Z,0.30
2019-03-09T13:14:05.249Z,0.20
2019-03-09T13:16:33.624Z,0.43
2019-03-09T13:19:02.025Z,0.40
2019-03-09T13:21:30.446Z,0.40
2019-03-09T13:23:58.870Z,1.50
2019-03-09T13:26:27.389Z,0.90
2019-03-09T13:28:55.786Z,1.93
2019-03-09T13:31:24.168Z,2.37
2019-03-09T13:33:52.569Z,2.20
2019-03-09T13:36:20.981Z,1.40
2019-03-09T13:38:49.401Z,1.33
2019-03-09T13:41:17.824Z,0.93
2019-03-09T13:43:46.268Z,4.97
2019-03-09T13:46:14.682Z,1.03
2019-03-09T13:48:43.123Z,0.60
2019-03-09T13:51:11.502Z,1.47
2019-03-09T13:53:39.921Z,1.87
2019-03-09T13:56:08.314Z,0.60
2019-03-09T13:58:36.708Z,0.50
2019-03-09T14:01:05.171Z,0.50
2019-03-09T14:03:33.567Z,0.40
2019-03-09T14:06:01.969Z,0.40
2019-03-09T14:08:30.426Z,2.50
2019-03-09T14:10:58.854Z,1.70
2019-03-09T14:13:27.514Z,0.97
2019-03-09T14:15:55.931Z,0.83
2019-03-09T14:18:24.325Z,0.50
2019-03-09T14:20:52.782Z,0.40
2019-03-09T14:23:21.181Z,0.40
2019-03-09T14:25:49.568Z,0.30
2019-03-09T14:28:17.966Z,0.50
2019-03-09T14:30:46.443Z,0.40
2019-03-09T14:33:14.826Z,0.50
2019-03-09T14:35:43.339Z,0.47
2019-03-09T14:38:11.748Z,0.30
2019-03-09T14:40:40.180Z,0.33
2019-03-09T14:43:08.587Z,1.50
2019-03-09T14:45:37.008Z,0.47
2019-03-09T14:48:05.435Z,0.60
2019-03-09T14:50:33.822Z,1.37
2019-03-09T14:53:02.291Z,3.20
2019-03-09T14:55:30.770Z,2.40
2019-03-09T14:57:59.172Z,0.50
2019-03-09T15:00:28.179Z,0.30
2019-03-09T15:02:56.707Z,0.40
2019-03-09T15:05:25.256Z,0.23
2019-03-09T15:07:53.724Z,0.20
2019-03-09T15:10:22.307Z,0.20
2019-03-09T15:12:50.752Z,0.20
2019-03-09T15:15:20.482Z,0.20
2019-03-09T15:17:48.938Z,0.20
2019-03-09T15:20:17.655Z,0.30
2019-03-09T15:22:46.087Z,0.30
2019-03-09T15:25:16.235Z,0.20
2019-03-09T15:27:44.766Z,0.30
2019-03-09T15:30:18.000Z,1.63
2019-03-09T15:32:46.463Z,0.10
2019-03-09T15:35:16.621Z,0.30
2019-03-09T15:37:45.384Z,0.10
2019-03-09T15:40:17.772Z,0.20
2019-03-09T15:42:46.208Z,0.20
2019-03-09T15:45:16.241Z,0.40
2019-03-09T15:47:44.703Z,1.10
2019-03-09T15:50:17.497Z,0.80
2019-03-09T15:52:45.908Z,0.20
2019-03-09T15:55:14.444Z,0.40
2019-03-09T15:57:42.851Z,0.20
2019-03-09T16:00:14.152Z,0.20
2019-03-09T16:02:42.621Z,0.20
2019-03-09T16:05:11.159Z,0.10
2019-03-09T16:07:39.636Z,0.20
2019-03-09T16:10:11.378Z,0.20
2019-03-09T16:12:39.782Z,0.20
2019-03-09T16:15:10.464Z,0.20
2019-03-09T16:17:38.867Z,0.23
2019-03-09T16:20:15.558Z,0.30
2019-03-09T16:22:43.978Z,0.30
2019-03-09T16:25:12.619Z,0.20
2019-03-09T16:27:41.080Z,0.20
2019-03-09T16:30:15.134Z,0.37
2019-03-09T16:32:43.556Z,0.23
2019-03-09T16:35:12.216Z,0.40
2019-03-09T16:37:40.623Z,0.20
2019-03-09T16:40:15.115Z,0.20
2019-03-09T16:42:43.511Z,0.20
2019-03-09T16:45:13.564Z,0.30
2019-03-09T16:47:41.995Z,0.30
2019-03-09T16:50:17.707Z,0.20
2019-03-09T16:52:46.216Z,0.40
2019-03-09T16:55:14.858Z,0.40
2019-03-09T16:57:43.333Z,0.40
2019-03-09T17:00:24.717Z,0.40
2019-03-09T17:02:53.195Z,0.37
2019-03-09T17:05:21.635Z,0.40
2019-03-09T17:07:50.030Z,0.40
2019-03-09T17:10:19.501Z,0.60
2019-03-09T17:12:48.245Z,0.50
2019-03-09T17:15:21.852Z,0.50
2019-03-09T17:17:50.320Z,0.40
2019-03-09T17:20:18.989Z,0.50
2019-03-09T17:22:47.398Z,0.63
2019-03-09T17:25:16.286Z,0.30
2019-03-09T17:27:44.699Z,0.50
2019-03-09T17:30:15.619Z,0.50
2019-03-09T17:32:44.111Z,0.30
2019-03-09T17:35:13.042Z,0.60
2019-03-09T17:37:41.473Z,0.50
2019-03-09T17:40:12.362Z,1.57
2019-03-09T17:42:40.835Z,2.77
2019-03-09T17:45:12.357Z,1.00
2019-03-09T17:47:40.770Z,0.77
2019-03-09T17:50:11.812Z,0.80
2019-03-09T17:52:40.202Z,0.60
2019-03-09T17:55:10.258Z,0.70
2019-03-09T17:57:38.805Z,0.80
2019-03-09T18:00:13.582Z,0.60
2019-03-09T18:02:42.084Z,0.40
2019-03-09T18:05:10.481Z,0.70
2019-03-09T18:07:38.888Z,0.60
2019-03-09T18:10:10.718Z,0.70
2019-03-09T18:12:40.520Z,0.70
2019-03-09T18:15:10.111Z,0.57
2019-03-09T18:17:38.524Z,0.70
2019-03-09T18:20:09.576Z,0.73
2019-03-09T18:22:38.008Z,1.00
2019-03-09T18:25:07.382Z,0.70
2019-03-09T18:27:35.834Z,0.60
2019-03-09T18:30:06.198Z,0.80
2019-03-09T18:32:34.651Z,0.67
2019-03-09T18:35:03.096Z,1.03
2019-03-09T18:37:31.712Z,1.07
2019-03-09T18:40:00.320Z,0.80
2019-03-09T18:42:28.688Z,0.90
2019-03-09T18:44:57.087Z,1.40
2019-03-09T18:47:25.659Z,0.70
2019-03-09T18:49:54.076Z,0.80
2019-03-09T18:52:22.579Z,0.70
2019-03-09T18:54:51.052Z,0.80
2019-03-09T18:57:19.506Z,1.07
2019-03-09T18:59:47.905Z,0.87
2019-03-09T19:02:16.387Z,1.33
2019-03-09T19:04:44.809Z,1.50
2019-03-09T19:07:13.208Z,1.20
2019-03-09T19:09:41.660Z,1.07
2019-03-09T19:12:10.131Z,1.00
2019-03-09T19:14:38.546Z,1.20
2019-03-09T19:17:06.945Z,1.00
2019-03-09T19:19:35.625Z,1.10
2019-03-09T19:22:04.110Z,1.00
2019-03-09T19:24:32.539Z,1.40
2019-03-09T19:27:01.069Z,0.97
2019-03-09T19:29:29.493Z,1.00
2019-03-09T19:31:57.901Z,1.30
2019-03-09T19:34:26.408Z,1.20
2019-03-09T19:36:54.808Z,1.00
2019-03-09T19:39:23.294Z,1.77
2019-03-09T19:41:51.716Z,1.17
2019-03-09T19:44:20.131Z,1.57
2019-03-09T19:46:48.546Z,1.10
2019-03-09T19:49:16.941Z,1.07
2019-03-09T19:51:45.378Z,1.10
2019-03-09T19:54:13.822Z,1.17
2019-03-09T19:56:42.218Z,1.30
2019-03-09T19:59:10.612Z,1.50
2019-03-09T20:01:39.030Z,1.10
2019-03-09T20:04:07.540Z,1.50
2019-03-09T20:06:35.945Z,1.30
2019-03-09T20:09:06.281Z,1.47
2019-03-09T20:11:34.758Z,1.20
2019-03-09T20:14:03.219Z,2.40
2019-03-09T20:16:31.634Z,1.77
2019-03-09T20:19:00.034Z,1.53
2019-03-09T20:21:28.742Z,1.10
2019-03-09T20:23:57.223Z,1.30
2019-03-09T20:26:25.704Z,1.20
2019-03-09T20:28:54.209Z,1.20
2019-03-09T20:31:22.719Z,1.73
2019-03-09T20:33:51.128Z,1.30
2019-03-09T20:36:19.644Z,1.67
2019-03-09T20:38:48.076Z,1.60
2019-03-09T20:41:16.537Z,1.70
2019-03-09T20:43:44.953Z,1.63
2019-03-09T20:46:13.380Z,1.67
2019-03-09T20:48:41.788Z,1.13
2019-03-09T20:51:10.430Z,1.60
2019-03-09T20:53:38.841Z,1.40
2019-03-09T20:56:07.402Z,1.70
2019-03-09T20:58:35.794Z,1.90
2019-03-09T21:03:34.594Z,1.60
2019-03-09T21:06:03.047Z,1.50
2019-03-09T21:08:31.481Z,1.60
2019-03-09T21:11:03.888Z,1.20
2019-03-09T21:13:30.033Z,1.93
2019-03-09T21:15:58.584Z,1.23
2019-03-09T21:18:26.997Z,1.80
2019-03-09T21:20:55.458Z,1.10
2019-03-09T21:23:25.027Z,1.33
2019-03-09T21:25:53.406Z,1.30
2019-03-09T21:28:21.847Z,1.40
2019-03-09T21:30:50.244Z,1.50
2019-03-09T21:33:18.640Z,1.60
2019-03-09T21:35:47.039Z,1.20
2019-03-09T21:38:15.657Z,1.20
2019-03-09T21:40:44.126Z,1.00
2019-03-09T21:43:12.539Z,1.27
2019-03-09T21:45:40.973Z,1.20
2019-03-09T21:48:09.390Z,1.30
2019-03-09T21:50:37.802Z,1.10
2019-03-09T21:53:06.358Z,1.20
2019-03-09T21:55:34.766Z,1.40
2019-03-09T21:58:03.166Z,1.00
2019-03-09T22:00:31.675Z,1.30
2019-03-09T22:03:00.158Z,1.30
2019-03-09T22:05:28.615Z,1.13
2019-03-09T22:07:57.107Z,1.20
2019-03-09T22:10:25.528Z,1.10
2019-03-09T22:12:53.920Z,1.50
2019-03-09T22:15:22.311Z,1.13
2019-03-09T22:17:50.780Z,1.20
2019-03-09T22:20:20.631Z,1.03
2019-03-09T22:22:49.195Z,1.23
2019-03-09T22:25:17.925Z,1.33
2019-03-09T22:27:46.320Z,1.03
2019-03-09T22:30:20.780Z,1.10
2019-03-09T22:32:49.286Z,1.10
2019-03-09T22:35:17.745Z,1.27
2019-03-09T22:37:46.258Z,1.27
2019-03-09T22:40:18.616Z,1.03
2019-03-09T22:42:47.183Z,1.10
2019-03-09T22:45:16.052Z,1.23
2019-03-09T22:47:44.534Z,1.30
2019-03-09T22:50:17.834Z,1.17
2019-03-09T22:52:46.335Z,1.30
2019-03-09T22:55:14.870Z,1.40
2019-03-09T22:57:43.338Z,1.20
2019-03-09T23:00:14.870Z,1.17
2019-03-09T23:02:44.922Z,1.00
2019-03-09T23:05:13.978Z,0.87
2019-03-09T23:07:42.734Z,0.90
2019-03-09T23:10:16.595Z,1.13
2019-03-09T23:12:45.051Z,1.27
2019-03-09T23:15:15.296Z,0.93
2019-03-09T23:17:44.446Z,1.30
2019-03-09T23:20:14.970Z,1.20
2019-03-09T23:22:43.559Z,1.00
2019-03-09T23:25:13.388Z,1.03
2019-03-09T23:27:41.966Z,1.37
2019-03-09T23:30:13.422Z,1.20
2019-03-09T23:32:41.840Z,0.93
2019-03-09T23:35:10.396Z,1.43
2019-03-09T23:37:38.881Z,1.17
2019-03-09T23:40:12.726Z,1.37
2019-03-09T23:42:41.194Z,1.37
2019-03-09T23:45:15.320Z,1.10
2019-03-09T23:47:43.960Z,1.10
2019-03-09T23:50:14.614Z,0.80
2019-03-09T23:52:43.155Z,1.23
2019-03-09T23:55:21.285Z,1.03
2019-03-09T23:57:42.303Z,1.30
